sensor_id;sensor_type;location;lat;lon;timestamp;P1;durP1;ratioP1;P2;durP2;ratioP2
24751;SDS011;27246;52.376;4.628;2022-07-09T00:00:13;5.18;;;3.35;;
24751;SDS011;27246;52.376;4.628;2022-07-09T00:05:15;4.88;;;3.40;;
24751;SDS011;27246;52.376;4.628;2022-07-09T00:10:18;4.25;;;3.45;;
24751;SDS011;27246;52.376;4.628;2022-07-09T00:15:20;6.00;;;3.70;;
24751;SDS011;27246;52.376;4.628;2022-07-09T00:20:22;3.30;;;2.83;;
24751;SDS011;27246;52.376;4.628;2022-07-09T00:25:23;4.93;;;3.35;;
24751;SDS011;27246;52.376;4.628;2022-07-09T00:30:25;9.95;;;3.90;;
24751;SDS011;27246;52.376;4.628;2022-07-09T00:35:27;4.35;;;3.28;;
24751;SDS011;27246;52.376;4.628;2022-07-09T00:40:29;4.72;;;4.07;;
24751;SDS011;27246;52.376;4.628;2022-07-09T00:45:31;4.22;;;3.28;;
24751;SDS011;27246;52.376;4.628;2022-07-09T00:50:32;4.78;;;3.20;;
24751;SDS011;27246;52.376;4.628;2022-07-09T00:55:34;7.88;;;3.83;;
24751;SDS011;27246;52.376;4.628;2022-07-09T01:00:37;6.57;;;3.45;;
24751;SDS011;27246;52.376;4.628;2022-07-09T01:05:39;4.93;;;3.63;;
24751;SDS011;27246;52.376;4.628;2022-07-09T01:10:41;4.05;;;3.33;;
24751;SDS011;27246;52.376;4.628;2022-07-09T01:15:43;7.22;;;4.47;;
24751;SDS011;27246;52.376;4.628;2022-07-09T01:20:45;5.80;;;4.15;;
24751;SDS011;27246;52.376;4.628;2022-07-09T01:25:46;6.63;;;3.17;;
24751;SDS011;27246;52.376;4.628;2022-07-09T01:30:48;4.53;;;3.00;;
24751;SDS011;27246;52.376;4.628;2022-07-09T01:35:50;2.83;;;2.50;;
24751;SDS011;27246;52.376;4.628;2022-07-09T01:40:52;3.47;;;3.15;;
24751;SDS011;27246;52.376;4.628;2022-07-09T01:45:54;5.85;;;3.03;;
24751;SDS011;27246;52.376;4.628;2022-07-09T01:50:55;3.70;;;2.72;;
24751;SDS011;27246;52.376;4.628;2022-07-09T01:56:07;4.72;;;3.00;;
24751;SDS011;27246;52.376;4.628;2022-07-09T02:01:10;7.15;;;2.78;;
24751;SDS011;27246;52.376;4.628;2022-07-09T02:06:11;2.05;;;1.80;;
24751;SDS011;27246;52.376;4.628;2022-07-09T02:11:13;3.47;;;2.20;;
24751;SDS011;27246;52.376;4.628;2022-07-09T02:16:15;4.80;;;2.28;;
24751;SDS011;27246;52.376;4.628;2022-07-09T02:21:16;4.80;;;2.28;;
24751;SDS011;27246;52.376;4.628;2022-07-09T02:26:18;2.88;;;2.08;;
24751;SDS011;27246;52.376;4.628;2022-07-09T02:31:20;2.67;;;2.03;;
24751;SDS011;27246;52.376;4.628;2022-07-09T02:36:22;4.38;;;2.20;;
24751;SDS011;27246;52.376;4.628;2022-07-09T02:41:24;3.35;;;2.38;;
24751;SDS011;27246;52.376;4.628;2022-07-09T02:46:25;6.25;;;2.42;;
24751;SDS011;27246;52.376;4.628;2022-07-09T02:51:27;3.80;;;2.53;;
24751;SDS011;27246;52.376;4.628;2022-07-09T02:56:29;2.92;;;2.13;;
24751;SDS011;27246;52.376;4.628;2022-07-09T03:01:31;5.13;;;2.58;;
24751;SDS011;27246;52.376;4.628;2022-07-09T03:06:33;3.05;;;2.10;;
24751;SDS011;27246;52.376;4.628;2022-07-09T03:11:34;3.45;;;1.88;;
24751;SDS011;27246;52.376;4.628;2022-07-09T03:16:36;1.80;;;1.63;;
24751;SDS011;27246;52.376;4.628;2022-07-09T03:21:37;2.72;;;2.20;;
24751;SDS011;27246;52.376;4.628;2022-07-09T03:26:39;3.50;;;2.30;;
24751;SDS011;27246;52.376;4.628;2022-07-09T03:31:41;2.20;;;1.90;;
24751;SDS011;27246;52.376;4.628;2022-07-09T03:36:42;2.88;;;1.90;;
24751;SDS011;27246;52.376;4.628;2022-07-09T03:41:44;2.97;;;2.38;;
24751;SDS011;27246;52.376;4.628;2022-07-09T03:46:45;2.70;;;1.92;;
24751;SDS011;27246;52.376;4.628;2022-07-09T03:51:47;3.05;;;1.98;;
24751;SDS011;27246;52.376;4.628;2022-07-09T03:57:09;3.17;;;2.10;;
24751;SDS011;27246;52.376;4.628;2022-07-09T04:02:11;3.42;;;2.20;;
24751;SDS011;27246;52.376;4.628;2022-07-09T04:07:14;1.95;;;1.85;;
24751;SDS011;27246;52.376;4.628;2022-07-09T04:12:15;3.78;;;2.47;;
24751;SDS011;27246;52.376;4.628;2022-07-09T04:17:17;2.53;;;2.22;;
24751;SDS011;27246;52.376;4.628;2022-07-09T04:22:21;2.90;;;2.55;;
24751;SDS011;27246;52.376;4.628;2022-07-09T04:27:23;4.25;;;2.80;;
24751;SDS011;27246;52.376;4.628;2022-07-09T04:32:24;4.88;;;2.58;;
24751;SDS011;27246;52.376;4.628;2022-07-09T04:37:26;4.15;;;2.85;;
24751;SDS011;27246;52.376;4.628;2022-07-09T04:42:28;4.25;;;3.45;;
24751;SDS011;27246;52.376;4.628;2022-07-09T04:47:29;5.97;;;3.42;;
24751;SDS011;27246;52.376;4.628;2022-07-09T04:52:31;3.85;;;3.22;;
24751;SDS011;27246;52.376;4.628;2022-07-09T04:57:32;4.78;;;4.15;;
24751;SDS011;27246;52.376;4.628;2022-07-09T05:02:34;6.82;;;4.82;;
24751;SDS011;27246;52.376;4.628;2022-07-09T05:07:36;7.05;;;5.82;;
24751;SDS011;27246;52.376;4.628;2022-07-09T05:12:37;7.25;;;6.60;;
24751;SDS011;27246;52.376;4.628;2022-07-09T05:17:40;11.50;;;6.93;;
24751;SDS011;27246;52.376;4.628;2022-07-09T05:22:42;8.82;;;7.00;;
24751;SDS011;27246;52.376;4.628;2022-07-09T05:27:44;9.70;;;6.10;;
24751;SDS011;27246;52.376;4.628;2022-07-09T05:32:47;8.50;;;4.72;;
24751;SDS011;27246;52.376;4.628;2022-07-09T05:37:49;5.15;;;4.75;;
24751;SDS011;27246;52.376;4.628;2022-07-09T05:42:50;4.85;;;4.45;;
24751;SDS011;27246;52.376;4.628;2022-07-09T05:47:52;6.03;;;2.80;;
24751;SDS011;27246;52.376;4.628;2022-07-09T05:52:54;3.90;;;2.67;;
24751;SDS011;27246;52.376;4.628;2022-07-09T05:57:55;4.07;;;2.72;;
24751;SDS011;27246;52.376;4.628;2022-07-09T06:02:58;4.85;;;2.75;;
24751;SDS011;27246;52.376;4.628;2022-07-09T06:08:01;2.60;;;2.40;;
24751;SDS011;27246;52.376;4.628;2022-07-09T06:13:02;3.72;;;1.95;;
24751;SDS011;27246;52.376;4.628;2022-07-09T06:18:04;2.45;;;1.90;;
24751;SDS011;27246;52.376;4.628;2022-07-09T06:23:06;2.67;;;2.03;;
24751;SDS011;27246;52.376;4.628;2022-07-09T06:28:08;2.05;;;1.40;;
24751;SDS011;27246;52.376;4.628;2022-07-09T06:33:10;1.80;;;1.17;;
24751;SDS011;27246;52.376;4.628;2022-07-09T06:38:14;1.77;;;1.38;;
24751;SDS011;27246;52.376;4.628;2022-07-09T06:43:17;3.85;;;1.00;;
24751;SDS011;27246;52.376;4.628;2022-07-09T06:48:21;1.55;;;1.35;;
24751;SDS011;27246;52.376;4.628;2022-07-09T06:53:23;1.70;;;1.08;;
24751;SDS011;27246;52.376;4.628;2022-07-09T06:58:29;2.35;;;1.20;;
24751;SDS011;27246;52.376;4.628;2022-07-09T07:03:31;4.40;;;1.10;;
24751;SDS011;27246;52.376;4.628;2022-07-09T07:08:35;4.57;;;1.02;;
24751;SDS011;27246;52.376;4.628;2022-07-09T07:13:58;3.95;;;1.40;;
24751;SDS011;27246;52.376;4.628;2022-07-09T07:19:05;1.20;;;1.08;;
24751;SDS011;27246;52.376;4.628;2022-07-09T07:24:12;2.05;;;1.10;;
24751;SDS011;27246;52.376;4.628;2022-07-09T07:29:18;3.47;;;1.25;;
24751;SDS011;27246;52.376;4.628;2022-07-09T07:34:20;3.65;;;1.23;;
24751;SDS011;27246;52.376;4.628;2022-07-09T07:39:23;3.83;;;1.27;;
24751;SDS011;27246;52.376;4.628;2022-07-09T07:44:26;3.75;;;1.30;;
24751;SDS011;27246;52.376;4.628;2022-07-09T07:49:30;4.45;;;1.55;;
24751;SDS011;27246;52.376;4.628;2022-07-09T07:54:31;4.80;;;1.00;;
24751;SDS011;27246;52.376;4.628;2022-07-09T07:59:34;4.10;;;1.20;;
24751;SDS011;27246;52.376;4.628;2022-07-09T08:04:36;3.10;;;1.10;;
24751;SDS011;27246;52.376;4.628;2022-07-09T08:09:37;5.10;;;1.70;;
24751;SDS011;27246;52.376;4.628;2022-07-09T08:14:39;8.93;;;1.58;;
24751;SDS011;27246;52.376;4.628;2022-07-09T08:19:41;2.58;;;1.05;;
24751;SDS011;27246;52.376;4.628;2022-07-09T08:24:42;3.22;;;1.13;;
24751;SDS011;27246;52.376;4.628;2022-07-09T08:29:44;4.65;;;1.30;;
24751;SDS011;27246;52.376;4.628;2022-07-09T08:34:46;6.03;;;1.67;;
24751;SDS011;27246;52.376;4.628;2022-07-09T08:39:47;5.13;;;1.17;;
24751;SDS011;27246;52.376;4.628;2022-07-09T08:44:51;6.22;;;1.52;;
24751;SDS011;27246;52.376;4.628;2022-07-09T08:49:56;3.00;;;1.05;;
24751;SDS011;27246;52.376;4.628;2022-07-09T08:55:02;4.95;;;1.17;;
24751;SDS011;27246;52.376;4.628;2022-07-09T09:00:05;4.47;;;0.80;;
24751;SDS011;27246;52.376;4.628;2022-07-09T09:05:08;3.75;;;1.42;;
24751;SDS011;27246;52.376;4.628;2022-07-09T09:10:24;2.55;;;1.20;;
24751;SDS011;27246;52.376;4.628;2022-07-09T09:15:29;3.30;;;0.95;;
24751;SDS011;27246;52.376;4.628;2022-07-09T09:20:30;4.97;;;0.80;;
24751;SDS011;27246;52.376;4.628;2022-07-09T09:25:34;4.25;;;1.10;;
24751;SDS011;27246;52.376;4.628;2022-07-09T09:30:40;1.75;;;0.98;;
24751;SDS011;27246;52.376;4.628;2022-07-09T09:36:43;4.78;;;1.00;;
24751;SDS011;27246;52.376;4.628;2022-07-09T09:41:54;5.47;;;1.27;;
24751;SDS011;27246;52.376;4.628;2022-07-09T09:46:57;3.03;;;1.33;;
24751;SDS011;27246;52.376;4.628;2022-07-09T09:57:10;1.77;;;1.10;;
24751;SDS011;27246;52.376;4.628;2022-07-09T10:02:14;3.92;;;1.38;;
24751;SDS011;27246;52.376;4.628;2022-07-09T10:07:16;1.45;;;0.73;;
24751;SDS011;27246;52.376;4.628;2022-07-09T10:17:45;0.93;;;0.70;;
24751;SDS011;27246;52.376;4.628;2022-07-09T10:22:48;1.90;;;0.82;;
24751;SDS011;27246;52.376;4.628;2022-07-09T10:27:49;5.90;;;1.42;;
24751;SDS011;27246;52.376;4.628;2022-07-09T10:33:07;4.68;;;1.45;;
24751;SDS011;27246;52.376;4.628;2022-07-09T10:38:09;5.43;;;1.52;;
24751;SDS011;27246;52.376;4.628;2022-07-09T10:43:12;3.97;;;1.20;;
24751;SDS011;27246;52.376;4.628;2022-07-09T10:48:14;4.32;;;1.40;;
24751;SDS011;27246;52.376;4.628;2022-07-09T10:53:17;14.63;;;1.70;;
24751;SDS011;27246;52.376;4.628;2022-07-09T10:58:19;4.88;;;1.17;;
24751;SDS011;27246;52.376;4.628;2022-07-09T11:03:29;3.03;;;1.13;;
24751;SDS011;27246;52.376;4.628;2022-07-09T11:08:33;3.10;;;1.38;;
24751;SDS011;27246;52.376;4.628;2022-07-09T11:13:36;3.17;;;1.60;;
24751;SDS011;27246;52.376;4.628;2022-07-09T11:18:37;3.97;;;1.20;;
24751;SDS011;27246;52.376;4.628;2022-07-09T11:23:47;4.28;;;1.45;;
24751;SDS011;27246;52.376;4.628;2022-07-09T11:28:50;4.07;;;1.70;;
24751;SDS011;27246;52.376;4.628;2022-07-09T11:33:56;6.35;;;1.73;;
24751;SDS011;27246;52.376;4.628;2022-07-09T11:44:32;5.20;;;1.60;;
24751;SDS011;27246;52.376;4.628;2022-07-09T11:49:40;2.92;;;1.70;;
24751;SDS011;27246;52.376;4.628;2022-07-09T11:54:59;6.05;;;1.58;;
24751;SDS011;27246;52.376;4.628;2022-07-09T12:00:06;4.15;;;1.80;;
24751;SDS011;27246;52.376;4.628;2022-07-09T12:05:23;3.10;;;1.73;;
24751;SDS011;27246;52.376;4.628;2022-07-09T12:10:30;2.58;;;1.13;;
24751;SDS011;27246;52.376;4.628;2022-07-09T12:15:35;3.20;;;1.60;;
24751;SDS011;27246;52.376;4.628;2022-07-09T12:20:39;8.43;;;1.90;;
24751;SDS011;27246;52.376;4.628;2022-07-09T12:25:41;7.60;;;1.95;;
24751;SDS011;27246;52.376;4.628;2022-07-09T12:30:43;7.60;;;2.33;;
24751;SDS011;27246;52.376;4.628;2022-07-09T12:35:46;4.72;;;1.65;;
24751;SDS011;27246;52.376;4.628;2022-07-09T12:40:48;7.88;;;2.30;;
24751;SDS011;27246;52.376;4.628;2022-07-09T12:45:49;8.82;;;2.17;;
24751;SDS011;27246;52.376;4.628;2022-07-09T12:50:52;7.38;;;2.67;;
24751;SDS011;27246;52.376;4.628;2022-07-09T12:56:01;5.63;;;2.07;;
24751;SDS011;27246;52.376;4.628;2022-07-09T13:01:04;6.88;;;2.15;;
24751;SDS011;27246;52.376;4.628;2022-07-09T13:06:09;6.03;;;1.77;;
24751;SDS011;27246;52.376;4.628;2022-07-09T13:11:29;5.68;;;1.27;;
24751;SDS011;27246;52.376;4.628;2022-07-09T13:16:31;7.20;;;1.70;;
24751;SDS011;27246;52.376;4.628;2022-07-09T13:21:37;5.35;;;1.83;;
24751;SDS011;27246;52.376;4.628;2022-07-09T13:26:41;4.47;;;1.70;;
24751;SDS011;27246;52.376;4.628;2022-07-09T13:31:43;6.88;;;1.70;;
24751;SDS011;27246;52.376;4.628;2022-07-09T13:36:45;3.95;;;1.30;;
24751;SDS011;27246;52.376;4.628;2022-07-09T13:41:47;5.82;;;1.58;;
24751;SDS011;27246;52.376;4.628;2022-07-09T13:46:49;7.97;;;1.50;;
24751;SDS011;27246;52.376;4.628;2022-07-09T13:51:50;4.82;;;1.50;;
24751;SDS011;27246;52.376;4.628;2022-07-09T13:56:52;3.97;;;1.52;;
24751;SDS011;27246;52.376;4.628;2022-07-09T14:01:56;5.95;;;1.60;;
24751;SDS011;27246;52.376;4.628;2022-07-09T14:06:58;2.92;;;1.40;;
24751;SDS011;27246;52.376;4.628;2022-07-09T14:12:00;4.45;;;1.10;;
24751;SDS011;27246;52.376;4.628;2022-07-09T14:17:03;2.78;;;1.00;;
24751;SDS011;27246;52.376;4.628;2022-07-09T14:22:05;3.25;;;1.45;;
24751;SDS011;27246;52.376;4.628;2022-07-09T14:27:07;4.55;;;1.20;;
24751;SDS011;27246;52.376;4.628;2022-07-09T14:32:14;13.00;;;1.80;;
24751;SDS011;27246;52.376;4.628;2022-07-09T14:37:16;6.25;;;1.75;;
24751;SDS011;27246;52.376;4.628;2022-07-09T14:42:18;4.50;;;1.52;;
24751;SDS011;27246;52.376;4.628;2022-07-09T14:47:20;7.65;;;1.98;;
24751;SDS011;27246;52.376;4.628;2022-07-09T14:52:21;4.03;;;1.30;;
24751;SDS011;27246;52.376;4.628;2022-07-09T14:57:23;2.83;;;1.42;;
24751;SDS011;27246;52.376;4.628;2022-07-09T15:02:25;4.38;;;1.38;;
24751;SDS011;27246;52.376;4.628;2022-07-09T15:07:27;3.33;;;1.20;;
24751;SDS011;27246;52.376;4.628;2022-07-09T15:12:28;5.80;;;1.63;;
24751;SDS011;27246;52.376;4.628;2022-07-09T15:17:30;5.28;;;1.52;;
24751;SDS011;27246;52.376;4.628;2022-07-09T15:22:32;6.68;;;1.40;;
24751;SDS011;27246;52.376;4.628;2022-07-09T15:27:34;1.52;;;1.10;;
24751;SDS011;27246;52.376;4.628;2022-07-09T15:32:39;5.82;;;2.00;;
24751;SDS011;27246;52.376;4.628;2022-07-09T15:37:52;4.60;;;1.30;;
24751;SDS011;27246;52.376;4.628;2022-07-09T15:42:54;3.08;;;1.40;;
24751;SDS011;27246;52.376;4.628;2022-07-09T15:48:00;2.92;;;1.77;;
24751;SDS011;27246;52.376;4.628;2022-07-09T15:53:02;2.42;;;1.10;;
24751;SDS011;27246;52.376;4.628;2022-07-09T15:58:04;4.28;;;1.98;;
24751;SDS011;27246;52.376;4.628;2022-07-09T16:03:08;3.50;;;1.10;;
24751;SDS011;27246;52.376;4.628;2022-07-09T16:08:10;6.25;;;1.40;;
24751;SDS011;27246;52.376;4.628;2022-07-09T16:13:12;4.47;;;1.33;;
24751;SDS011;27246;52.376;4.628;2022-07-09T16:18:14;1.52;;;1.00;;
24751;SDS011;27246;52.376;4.628;2022-07-09T16:23:16;2.28;;;1.33;;
24751;SDS011;27246;52.376;4.628;2022-07-09T16:28:17;3.53;;;1.58;;
24751;SDS011;27246;52.376;4.628;2022-07-09T16:33:20;4.78;;;2.10;;
24751;SDS011;27246;52.376;4.628;2022-07-09T16:38:22;1.83;;;1.10;;
24751;SDS011;27246;52.376;4.628;2022-07-09T16:43:23;2.92;;;1.40;;
24751;SDS011;27246;52.376;4.628;2022-07-09T16:48:32;4.45;;;2.10;;
24751;SDS011;27246;52.376;4.628;2022-07-09T16:53:43;6.60;;;1.90;;
24751;SDS011;27246;52.376;4.628;2022-07-09T16:58:45;3.83;;;1.88;;
24751;SDS011;27246;52.376;4.628;2022-07-09T17:03:46;5.18;;;1.75;;
24751;SDS011;27246;52.376;4.628;2022-07-09T17:08:49;4.35;;;1.80;;
24751;SDS011;27246;52.376;4.628;2022-07-09T17:13:54;3.97;;;1.42;;
24751;SDS011;27246;52.376;4.628;2022-07-09T17:18:56;3.78;;;1.48;;
24751;SDS011;27246;52.376;4.628;2022-07-09T17:23:58;2.83;;;1.40;;
24751;SDS011;27246;52.376;4.628;2022-07-09T17:28:59;4.15;;;1.70;;
24751;SDS011;27246;52.376;4.628;2022-07-09T17:34:02;4.55;;;1.42;;
24751;SDS011;27246;52.376;4.628;2022-07-09T17:39:04;5.20;;;2.10;;
24751;SDS011;27246;52.376;4.628;2022-07-09T17:44:05;3.45;;;1.42;;
24751;SDS011;27246;52.376;4.628;2022-07-09T17:49:07;2.78;;;1.13;;
24751;SDS011;27246;52.376;4.628;2022-07-09T17:54:09;2.03;;;1.20;;
24751;SDS011;27246;52.376;4.628;2022-07-09T17:59:11;3.10;;;1.00;;
24751;SDS011;27246;52.376;4.628;2022-07-09T18:04:13;5.85;;;1.90;;
24751;SDS011;27246;52.376;4.628;2022-07-09T18:09:19;6.05;;;1.50;;
24751;SDS011;27246;52.376;4.628;2022-07-09T18:14:23;6.20;;;1.50;;
24751;SDS011;27246;52.376;4.628;2022-07-09T18:19:25;5.40;;;1.85;;
24751;SDS011;27246;52.376;4.628;2022-07-09T18:24:27;2.40;;;0.98;;
24751;SDS011;27246;52.376;4.628;2022-07-09T18:29:30;4.68;;;1.38;;
24751;SDS011;27246;52.376;4.628;2022-07-09T18:34:32;8.35;;;1.73;;
24751;SDS011;27246;52.376;4.628;2022-07-09T18:39:34;3.70;;;1.27;;
24751;SDS011;27246;52.376;4.628;2022-07-09T18:44:36;2.42;;;1.55;;
24751;SDS011;27246;52.376;4.628;2022-07-09T18:49:41;4.95;;;1.00;;
24751;SDS011;27246;52.376;4.628;2022-07-09T18:54:43;3.35;;;1.30;;
24751;SDS011;27246;52.376;4.628;2022-07-09T18:59:44;3.03;;;1.00;;
24751;SDS011;27246;52.376;4.628;2022-07-09T19:04:46;2.45;;;0.90;;
24751;SDS011;27246;52.376;4.628;2022-07-09T19:09:48;4.22;;;1.10;;
24751;SDS011;27246;52.376;4.628;2022-07-09T19:14:49;4.07;;;0.95;;
24751;SDS011;27246;52.376;4.628;2022-07-09T19:19:51;2.90;;;1.08;;
24751;SDS011;27246;52.376;4.628;2022-07-09T19:24:53;3.47;;;1.55;;
24751;SDS011;27246;52.376;4.628;2022-07-09T19:29:54;1.23;;;0.80;;
24751;SDS011;27246;52.376;4.628;2022-07-09T19:41:13;2.67;;;1.45;;
24751;SDS011;27246;52.376;4.628;2022-07-09T19:46:15;2.88;;;0.73;;
24751;SDS011;27246;52.376;4.628;2022-07-09T19:51:18;4.22;;;1.33;;
24751;SDS011;27246;52.376;4.628;2022-07-09T19:56:20;2.17;;;1.15;;
24751;SDS011;27246;52.376;4.628;2022-07-09T20:01:36;3.75;;;1.20;;
24751;SDS011;27246;52.376;4.628;2022-07-09T20:06:47;3.25;;;1.00;;
24751;SDS011;27246;52.376;4.628;2022-07-09T20:11:49;1.65;;;0.82;;
24751;SDS011;27246;52.376;4.628;2022-07-09T20:17:28;4.05;;;1.10;;
24751;SDS011;27246;52.376;4.628;2022-07-09T20:22:50;3.72;;;1.10;;
24751;SDS011;27246;52.376;4.628;2022-07-09T20:27:56;4.10;;;1.13;;
24751;SDS011;27246;52.376;4.628;2022-07-09T20:33:02;3.05;;;1.40;;
24751;SDS011;27246;52.376;4.628;2022-07-09T20:38:07;4.00;;;1.00;;
24751;SDS011;27246;52.376;4.628;2022-07-09T20:43:10;2.70;;;1.08;;
24751;SDS011;27246;52.376;4.628;2022-07-09T20:48:15;3.67;;;1.75;;
24751;SDS011;27246;52.376;4.628;2022-07-09T20:53:16;5.07;;;1.52;;
24751;SDS011;27246;52.376;4.628;2022-07-09T20:58:18;4.60;;;1.40;;
24751;SDS011;27246;52.376;4.628;2022-07-09T21:03:23;2.80;;;1.20;;
24751;SDS011;27246;52.376;4.628;2022-07-09T21:08:25;4.03;;;1.67;;
24751;SDS011;27246;52.376;4.628;2022-07-09T21:13:26;2.63;;;1.17;;
24751;SDS011;27246;52.376;4.628;2022-07-09T21:18:31;2.78;;;1.30;;
24751;SDS011;27246;52.376;4.628;2022-07-09T21:23:54;1.50;;;1.10;;
24751;SDS011;27246;52.376;4.628;2022-07-09T21:28:56;2.33;;;1.10;;
24751;SDS011;27246;52.376;4.628;2022-07-09T21:33:58;3.38;;;1.33;;
24751;SDS011;27246;52.376;4.628;2022-07-09T21:39:00;6.00;;;1.20;;
24751;SDS011;27246;52.376;4.628;2022-07-09T21:44:01;3.70;;;1.30;;
24751;SDS011;27246;52.376;4.628;2022-07-09T21:49:03;3.78;;;1.10;;
24751;SDS011;27246;52.376;4.628;2022-07-09T21:54:05;4.05;;;1.30;;
24751;SDS011;27246;52.376;4.628;2022-07-09T21:59:07;2.45;;;1.33;;
24751;SDS011;27246;52.376;4.628;2022-07-09T22:04:09;4.13;;;1.90;;
24751;SDS011;27246;52.376;4.628;2022-07-09T22:09:10;4.32;;;1.67;;
24751;SDS011;27246;52.376;4.628;2022-07-09T22:14:12;3.05;;;1.30;;
24751;SDS011;27246;52.376;4.628;2022-07-09T22:19:14;3.55;;;1.38;;
24751;SDS011;27246;52.376;4.628;2022-07-09T22:24:16;2.50;;;0.90;;
24751;SDS011;27246;52.376;4.628;2022-07-09T22:29:18;2.35;;;0.90;;
24751;SDS011;27246;52.376;4.628;2022-07-09T22:34:20;2.78;;;0.90;;
24751;SDS011;27246;52.376;4.628;2022-07-09T22:39:22;4.00;;;0.85;;
24751;SDS011;27246;52.376;4.628;2022-07-09T22:44:24;3.85;;;1.00;;
24751;SDS011;27246;52.376;4.628;2022-07-09T22:49:25;2.15;;;0.85;;
24751;SDS011;27246;52.376;4.628;2022-07-09T22:54:27;2.75;;;1.00;;
24751;SDS011;27246;52.376;4.628;2022-07-09T22:59:29;4.47;;;1.20;;
24751;SDS011;27246;52.376;4.628;2022-07-09T23:04:30;3.00;;;0.93;;
24751;SDS011;27246;52.376;4.628;2022-07-09T23:09:32;1.85;;;0.85;;
24751;SDS011;27246;52.376;4.628;2022-07-09T23:14:34;3.15;;;0.93;;
24751;SDS011;27246;52.376;4.628;2022-07-09T23:19:35;2.80;;;1.20;;
24751;SDS011;27246;52.376;4.628;2022-07-09T23:24:37;3.20;;;1.00;;
24751;SDS011;27246;52.376;4.628;2022-07-09T23:29:39;3.22;;;1.55;;
24751;SDS011;27246;52.376;4.628;2022-07-09T23:34:41;2.35;;;1.10;;
24751;SDS011;27246;52.376;4.628;2022-07-09T23:39:43;2.95;;;1.17;;
24751;SDS011;27246;52.376;4.628;2022-07-09T23:44:44;3.30;;;1.08;;
24751;SDS011;27246;52.376;4.628;2022-07-09T23:49:46;2.58;;;0.80;;
24751;SDS011;27246;52.376;4.628;2022-07-09T23:54:49;4.30;;;1.20;;
24751;SDS011;27246;52.376;4.628;2022-07-09T23:59:51;3.25;;;1.02;;
